»·PEaware :: N623JB KSAN-KLAX

N623JB :: KSAN-KLAX

FLIGHT INFORMATION

Flight Status: Arrived
Operator: Privately registered:
United States
More flights under this callsign
Pilot: Jonathan B. (32222)
Aircraft: SOCATA TBM-900
(TBM9)
More flights by this aircraft type
Origin: KSAN San Diego Intl-Lindbergh
United States
Destination: KLAX Los Angeles Intl
United States
More flights between these airports :: More routes between these airports
Route: +CWARD2 SLI
File this flight plan on PilotEdge
Remarks:
Altitude:
(Current/Filed)
10,000ft
Speed:
(Current/Filed)
240kts
Departed: 23-Nov-20 01:21 PM
Arrived: 23-Nov-20 01:57 PM
Distance/Time
Traveled:
6757nm/0:35
Distance/Time
To Go:
Arrived

Flight Plot

Page will automatically refresh every two minutes.

Flight plan parsing failed; only flown route is shown


Map Options




Map Legend


Flown Route
Filed Route
Departure Airport
Arrival Airport
Navaid (VOR, NDB)
Fix

Horizontal Profiles

Position Reports

Time Latitude Longitude Heading Altitude Ground
Speed
23-Nov-20 12:46 32.734459 -117.185753 197 14ft 0kts
23-Nov-20 12:47 32.734459 -117.185753 197 14ft 0kts
23-Nov-20 12:48 32.734459 -117.185753 197 14ft 0kts
23-Nov-20 12:49 32.734459 -117.185753 197 14ft 0kts
23-Nov-20 12:50 32.734459 -117.185753 197 14ft 0kts
23-Nov-20 12:51 32.734459 -117.185753 197 14ft 0kts
23-Nov-20 12:52 32.734459 -117.185753 197 14ft 0kts
23-Nov-20 12:53 32.734459 -117.185753 197 14ft 0kts
23-Nov-20 12:54 32.734459 -117.185753 197 14ft 0kts
23-Nov-20 12:55 32.734459 -117.185753 197 14ft 0kts
23-Nov-20 12:56 32.734459 -117.185753 197 14ft 0kts
23-Nov-20 12:57 32.734459 -117.185753 197 14ft 0kts
23-Nov-20 12:58 32.734459 -117.185753 197 14ft 0kts
23-Nov-20 12:59 32.734459 -117.185753 197 14ft 0kts
23-Nov-20 13:00 32.734459 -117.185753 197 14ft 0kts
23-Nov-20 13:01 32.734459 -117.185753 197 14ft 0kts
23-Nov-20 13:02 32.734459 -117.185753 197 14ft 0kts
23-Nov-20 13:03 32.734459 -117.185753 197 14ft 0kts
23-Nov-20 13:04 32.734459 -117.185753 197 14ft 0kts
23-Nov-20 13:06 32.734459 -117.185753 197 14ft 0kts
23-Nov-20 13:07 32.734459 -117.185753 197 14ft 0kts
23-Nov-20 13:08 32.734459 -117.185753 197 14ft 0kts
23-Nov-20 13:09 32.734459 -117.185753 197 14ft 0kts
23-Nov-20 13:10 32.734459 -117.185753 197 14ft 0kts
23-Nov-20 13:11 32.734459 -117.185753 197 14ft 0kts
23-Nov-20 13:12 32.734459 -117.185753 197 14ft 0kts
23-Nov-20 13:13 32.734459 -117.185753 197 14ft 0kts
23-Nov-20 13:14 32.734459 -117.185753 197 14ft 0kts
23-Nov-20 13:15 32.732653 -117.181185 107 15ft 16kts
23-Nov-20 13:16 32.731473 -117.176395 106 14ft 13kts
23-Nov-20 13:17 32.731041 -117.175543 146 14ft 0kts
23-Nov-20 13:18 32.731041 -117.175543 146 14ft 0kts
23-Nov-20 13:19 32.731041 -117.175543 146 14ft 0kts
23-Nov-20 13:20 32.731041 -117.175543 146 14ft 0kts
23-Nov-20 13:21 32.730612 -117.177526 283 13ft 44kts
23-Nov-20 13:22 32.745850 -117.211410 302 2044ft 133kts
23-Nov-20 13:23 32.765244 -117.249463 296 5131ft 130kts
23-Nov-20 13:24 32.786191 -117.295621 306 6788ft 184kts
23-Nov-20 13:24 32.812301 -117.338187 309 7885ft 205kts
23-Nov-20 13:26 32.855402 -117.404919 307 7988ft 226kts
23-Nov-20 13:26 32.887331 -117.454524 307 7984ft 228kts
23-Nov-20 13:27 32.925944 -117.514581 307 7978ft 229kts
23-Nov-20 13:28 32.964823 -117.575136 307 7979ft 230kts
23-Nov-20 13:29 33.003637 -117.635700 307 7975ft 230kts
23-Nov-20 13:30 33.042471 -117.696392 307 7974ft 230kts
23-Nov-20 13:31 33.085760 -117.752094 322 7975ft 231kts
23-Nov-20 13:32 33.134610 -117.801484 319 7974ft 231kts
23-Nov-20 13:33 33.184135 -117.850242 327 7972ft 232kts
23-Nov-20 13:34 33.245540 -117.874768 348 7975ft 237kts
23-Nov-20 13:35 33.309477 -117.890597 345 7976ft 236kts
23-Nov-20 13:36 33.373784 -117.905939 347 7977ft 237kts
23-Nov-20 13:37 33.436141 -117.928134 341 7979ft 234kts
23-Nov-20 13:38 33.498148 -117.950681 340 7854ft 231kts
23-Nov-20 13:39 33.557987 -117.972487 340 7583ft 221kts
23-Nov-20 13:40 33.616128 -117.993664 341 7371ft 208kts
23-Nov-20 13:41 33.669213 -118.013044 341 7139ft 198kts
23-Nov-20 13:42 33.721744 -118.032243 341 7009ft 195kts
23-Nov-20 13:43 33.773843 -118.050934 345 7001ft 197kts
23-Nov-20 13:44 33.829894 -118.058664 353 5655ft 202kts
23-Nov-20 13:45 33.882877 -118.065685 353 4155ft 181kts
23-Nov-20 13:46 33.927304 -118.072119 352 3971ft 141kts
23-Nov-20 13:47 33.952931 -118.094144 283 3723ft 134kts
23-Nov-20 13:48 33.959978 -118.137938 283 3202ft 131kts
23-Nov-20 13:49 33.958308 -118.178922 264 3003ft 116kts
23-Nov-20 13:50 33.954406 -118.217062 263 2838ft 107kts
23-Nov-20 13:51 33.951005 -118.250262 264 2348ft 99kts
23-Nov-20 13:52 33.947613 -118.283173 264 1799ft 99kts
23-Nov-20 13:53 33.944391 -118.314577 263 1260ft 91kts
23-Nov-20 13:54 33.941323 -118.344423 264 729ft 89kts
23-Nov-20 13:55 33.938288 -118.373874 264 254ft 87kts
23-Nov-20 13:56 33.936168 -118.393503 226 120ft 19kts
23-Nov-20 13:57 33.935399 -118.393718 181 120ft 0kts
23-Nov-20 13:58 33.935399 -118.393718 181 120ft 0kts
23-Nov-20 13:59 33.934987 -118.393758 190 120ft 1kts
23-Nov-20 14:00 33.933617 -118.394064 272 120ft 4kts
23-Nov-20 14:01 33.933619 -118.394155 269 120ft 0kts
23-Nov-20 14:02 33.933619 -118.394155 269 120ft 0kts
23-Nov-20 14:03 0.000408 0.013975 0 3ft 0kts

Navigation Log

Ident Type
Flight plan parsing failed, navigation log unavailable